Time;durP1;ratioP1;P1;durP2;ratioP2;P2;SDS_P1;SDS_P2;PMS_P1;PMS_P2;Temp;Humidity;BMP_temperature;BMP_pressure;BME280_temperature;BME280_humidity;BME280_pressure;Samples;Min_cycle;Max_cycle;Signal;HPM_P1;HPM_P2
2024/01/02 00:02:13;;;;;;;3.40;3.28;;;;;;;6.01;100.00;99538.97;6043359;23;20488;-72
2024/01/02 00:04:40;;;;;;;3.63;3.42;;;;;;;6.35;100.00;99589.31;6023592;23;20076;-70
2024/01/02 00:07:09;;;;;;;3.20;3.10;;;;;;;6.50;100.00;99605.94;6034215;23;20027;-70
2024/01/02 00:09:35;;;;;;;3.60;3.30;;;;;;;6.58;100.00;99615.03;6034391;23;20030;-70
2024/01/02 00:12:02;;;;;;;4.53;4.13;;;;;;;6.40;100.00;99587.31;5990792;23;20056;-72
2024/01/02 00:14:29;;;;;;;4.03;3.80;;;;;;;6.48;100.00;99605.16;6049196;23;20164;-72
2024/01/02 00:16:55;;;;;;;3.90;3.60;;;;;;;6.41;100.00;99611.63;6038293;23;20026;-70
2024/01/02 00:19:22;;;;;;;3.15;3.05;;;;;;;5.92;100.00;99513.41;6027188;23;20454;-72
2024/01/02 00:21:49;;;;;;;3.22;3.13;;;;;;;6.37;100.00;99588.34;6017815;23;20090;-72
2024/01/02 00:24:15;;;;;;;3.45;3.35;;;;;;;6.12;100.00;99552.28;6024846;23;20017;-72
2024/01/02 00:26:42;;;;;;;3.88;3.53;;;;;;;6.49;100.00;99604.22;6035168;23;20089;-71
2024/01/02 00:29:08;;;;;;;3.75;3.55;;;;;;;6.43;100.00;99597.56;6042211;23;20050;-69
2024/01/02 00:31:34;;;;;;;5.97;4.68;;;;;;;6.23;100.00;99571.72;6043313;23;20032;-72
2024/01/02 00:34:01;;;;;;;6.30;3.67;;;;;;;6.42;100.00;99592.47;6039427;23;20029;-72
2024/01/02 00:36:27;;;;;;;5.13;4.88;;;;;;;6.43;100.00;99586.31;6036431;23;20057;-71
2024/01/02 00:38:54;;;;;;;3.67;3.42;;;;;;;5.77;100.00;99478.56;6057757;23;20030;-71
2024/01/02 00:41:20;;;;;;;3.30;3.20;;;;;;;6.09;100.00;99529.00;6050437;23;20026;-72
2024/01/02 00:43:47;;;;;;;3.20;3.10;;;;;;;6.18;100.00;99545.94;6044539;23;20038;-73
2024/01/02 00:46:14;;;;;;;3.55;3.42;;;;;;;6.41;100.00;99583.78;6038132;23;20090;-71
2024/01/02 00:48:40;;;;;;;3.55;3.35;;;;;;;6.39;100.00;99575.22;6052401;23;20053;-72
2024/01/02 00:51:11;;;;;;;3.25;3.15;;;;;;;6.31;100.00;99562.56;6041943;23;20030;-71
2024/01/02 00:53:37;;;;;;;3.20;3.10;;;;;;;6.34;100.00;99564.19;6051379;23;20028;-72
2024/01/02 00:56:04;;;;;;;3.78;3.58;;;;;;;6.37;100.00;99561.41;6056709;23;20234;-72
2024/01/02 00:58:30;;;;;;;4.63;4.43;;;;;;;6.13;100.00;99521.88;6047374;23;20015;-72
2024/01/02 01:00:57;;;;;;;3.42;3.22;;;;;;;6.42;100.00;99569.84;6055713;23;20055;-73
2024/01/02 01:03:23;;;;;;;3.00;2.90;;;;;;;6.45;100.00;99555.81;6052784;23;20017;-71
2024/01/02 01:05:50;;;;;;;3.47;3.28;;;;;;;6.09;100.00;99508.16;6052740;23;20034;-70
2024/01/02 01:08:16;;;;;;;3.67;3.45;;;;;;;5.93;100.00;99478.63;6049368;23;20390;-72
2024/01/02 01:10:43;;;;;;;4.30;3.03;;;;;;;5.32;100.00;99379.41;6045710;23;20019;-72
2024/01/02 01:13:09;;;;;;;3.70;3.50;;;;;;;6.32;100.00;99522.59;6025235;23;20583;-71
2024/01/02 01:15:38;;;;;;;3.33;3.20;;;;;;;5.95;100.00;99466.38;6053024;23;20026;-73
2024/01/02 01:18:04;;;;;;;8.05;3.80;;;;;;;6.34;100.00;99525.13;6023668;23;20041;-71
2024/01/02 01:20:31;;;;;;;4.55;4.35;;;;;;;6.34;100.00;99520.75;6048604;23;20025;-72
2024/01/02 01:22:59;;;;;;;3.50;3.30;;;;;;;6.40;100.00;99516.97;6021030;23;20025;-71
2024/01/02 01:25:26;;;;;;;3.63;3.42;;;;;;;6.06;100.00;99447.59;6019654;23;20136;-72
2024/01/02 01:27:52;;;;;;;3.22;3.13;;;;;;;5.24;100.00;99315.69;6050684;23;20332;-70
2024/01/02 01:30:19;;;;;;;3.90;3.72;;;;;;;6.07;100.00;99438.84;6042130;23;20494;-71
2024/01/02 01:32:45;;;;;;;3.08;2.97;;;;;;;6.27;100.00;99456.84;5999682;23;20051;-72
2024/01/02 01:35:12;;;;;;;3.50;3.33;;;;;;;6.37;100.00;99478.91;6036788;23;20014;-71
2024/01/02 01:37:38;;;;;;;3.50;3.30;;;;;;;6.41;100.00;99469.13;6040901;23;20030;-71
2024/01/02 01:40:05;;;;;;;3.30;3.20;;;;;;;6.44;100.00;99473.34;6010219;23;20035;-72
2024/01/02 01:42:32;;;;;;;4.38;4.18;;;;;;;6.40;100.00;99467.44;6037489;23;20514;-72
2024/01/02 01:44:58;;;;;;;4.15;3.20;;;;;;;6.35;100.00;99453.81;6036911;23;20081;-73
2024/01/02 01:47:25;;;;;;;3.30;3.20;;;;;;;6.15;100.00;99416.69;6039689;23;20026;-74
2024/01/02 01:49:52;;;;;;;4.82;3.30;;;;;;;6.23;100.00;99433.66;6044271;23;20109;-70
2024/01/02 01:52:19;;;;;;;4.22;4.03;;;;;;;6.09;100.00;99405.75;6046873;23;20018;-73
2024/01/02 01:54:45;;;;;;;3.28;3.17;;;;;;;6.36;100.00;99445.94;6051431;23;20045;-71
2024/01/02 01:57:13;;;;;;;3.42;3.20;;;;;;;6.09;100.00;99396.16;6004878;23;20242;-70
2024/01/02 01:59:43;;;;;;;3.05;2.95;;;;;;;6.21;100.00;99410.28;6009450;23;20742;-70
2024/01/02 02:02:11;;;;;;;3.90;3.65;;;;;;;6.44;100.00;99436.88;6053528;23;20497;-70
2024/01/02 02:04:43;;;;;;;3.50;3.30;;;;;;;6.39;100.00;99427.53;6019536;23;20046;-71
2024/01/02 02:07:10;;;;;;;;;;;;;;;6.45;100.00;99428.94;6017406;23;20374;-72
2024/01/02 02:09:37;;;;;;;3.28;3.17;;;;;;;6.26;100.00;99392.66;6029569;23;19944;-72
2024/01/02 02:12:04;;;;;;;3.60;3.40;;;;;;;6.13;100.00;99356.03;6045454;23;20552;-72
2024/01/02 02:14:32;;;;;;;4.05;3.85;;;;;;;6.48;100.00;99405.31;6017869;23;20026;-74
2024/01/02 02:16:58;;;;;;;3.25;3.15;;;;;;;6.47;100.00;99374.97;6050966;23;20026;-72
2024/01/02 02:19:25;;;;;;;3.30;3.20;;;;;;;6.46;100.00;99375.91;6025988;23;20026;-73
2024/01/02 02:21:51;;;;;;;14.35;3.22;;;;;;;6.46;100.00;99357.66;6042471;23;20047;-69
2024/01/02 02:24:18;;;;;;;3.47;3.35;;;;;;;6.52;100.00;99340.84;6021764;23;20120;-72
2024/01/02 02:26:44;;;;;;;3.28;3.00;;;;;;;6.46;100.00;99322.94;6030127;23;20140;-72
2024/01/02 02:29:11;;;;;;;3.85;3.72;;;;;;;6.51;100.00;99328.72;6009306;23;20086;-71
2024/01/02 02:31:37;;;;;;;3.05;2.95;;;;;;;6.52;100.00;99320.00;6052744;23;20024;-70
2024/01/02 02:34:04;;;;;;;3.53;3.33;;;;;;;6.31;100.00;99275.97;6016305;23;20027;-71
2024/01/02 02:36:30;;;;;;;4.38;4.18;;;;;;;6.24;100.00;99253.00;6045511;23;20100;-72
2024/01/02 02:38:57;;;;;;;3.22;3.13;;;;;;;6.42;100.00;99285.78;6041301;23;20371;-72
2024/01/02 02:41:23;;;;;;;2.92;2.83;;;;;;;6.45;100.00;99266.53;6036795;23;20456;-70
2024/01/02 02:43:50;;;;;;;3.00;2.90;;;;;;;6.01;100.00;99186.59;6002892;23;20010;-72
2024/01/02 02:46:16;;;;;;;3.35;3.25;;;;;;;6.05;100.00;99180.28;6046758;23;20038;-74
2024/01/02 02:48:43;;;;;;;3.17;2.97;;;;;;;6.43;100.00;99234.50;6013511;23;20010;-74
2024/01/02 02:51:10;;;;;;;3.35;3.25;;;;;;;6.31;100.00;99225.63;6042201;23;20456;-70
2024/01/02 02:53:37;;;;;;;3.13;3.03;;;;;;;6.26;100.00;99191.22;6049892;23;20118;-70
2024/01/02 02:56:03;;;;;;;3.38;3.28;;;;;;;6.48;100.00;99203.81;6053606;23;20290;-70
2024/01/02 02:58:30;;;;;;;4.40;4.20;;;;;;;6.46;100.00;99201.28;6043202;23;20343;-71
2024/01/02 03:00:57;;;;;;;3.30;3.10;;;;;;;6.36;100.00;99206.22;6052027;23;20646;-70
2024/01/02 03:03:24;;;;;;;3.00;2.90;;;;;;;5.18;100.00;99005.63;6052495;23;20034;-73
2024/01/02 03:05:50;;;;;;;3.00;2.90;;;;;;;6.24;100.00;99180.06;6032402;23;20019;-70
2024/01/02 03:08:17;;;;;;;3.17;3.08;;;;;;;6.34;100.00;99189.81;6029344;23;20014;-71
2024/01/02 03:10:43;;;;;;;2.90;2.80;;;;;;;6.27;100.00;99169.44;6051932;23;20059;-71
2024/01/02 03:13:10;;;;;;;3.30;3.20;;;;;;;6.25;100.00;99158.25;6019513;23;20482;-71
2024/01/02 03:15:36;;;;;;;3.10;3.00;;;;;;;6.39;100.00;99161.75;6052971;23;20374;-71
2024/01/02 03:18:03;;;;;;;3.28;3.17;;;;;;;6.39;100.00;99151.31;6038528;23;20538;-72
2024/01/02 03:20:30;;;;;;;4.03;3.85;;;;;;;6.31;100.00;99137.06;6042648;23;20018;-72
2024/01/02 03:22:56;;;;;;;3.15;3.05;;;;;;;6.39;100.00;99130.47;6038138;23;20163;-73
2024/01/02 03:25:23;;;;;;;3.10;3.00;;;;;;;6.35;100.00;99139.41;6032483;23;20427;-74
2024/01/02 03:27:49;;;;;;;3.75;3.55;;;;;;;6.18;100.00;99119.56;6067131;23;20034;-71
2024/01/02 03:30:16;;;;;;;3.35;3.25;;;;;;;6.33;100.00;99117.78;6010736;23;20055;-70
2024/01/02 03:32:42;;;;;;;3.10;3.00;;;;;;;6.04;100.00;99074.44;6041749;23;20263;-72
2024/01/02 03:35:10;;;;;;;3.40;3.30;;;;;;;6.25;100.00;99090.53;6051903;23;20022;-70
2024/01/02 03:37:37;;;;;;;3.10;3.00;;;;;;;6.33;100.00;99090.91;6056299;23;20026;-72
2024/01/02 03:40:04;;;;;;;3.45;3.35;;;;;;;6.03;100.00;99037.13;6055474;23;20022;-71
2024/01/02 03:42:30;;;;;;;4.32;4.13;;;;;;;5.84;100.00;99008.72;6052220;23;20259;-70
2024/01/02 03:44:57;;;;;;;3.03;2.92;;;;;;;6.13;100.00;99034.81;6052992;23;20034;-70
2024/01/02 03:47:23;;;;;;;3.00;2.90;;;;;;;6.21;100.00;99049.97;6036218;23;20522;-72
2024/01/02 03:49:50;;;;;;;3.10;3.00;;;;;;;6.26;100.00;99058.38;6009778;23;20053;-72
2024/01/02 03:52:16;;;;;;;3.33;3.22;;;;;;;6.11;100.00;99024.47;6041195;23;20010;-72
2024/01/02 03:54:43;;;;;;;3.10;3.00;;;;;;;6.14;100.00;99023.47;6025572;23;20011;-72
2024/01/02 03:57:09;;;;;;;3.28;3.17;;;;;;;6.26;100.00;99040.94;6034865;23;20367;-71
2024/01/02 03:59:36;;;;;;;2.95;2.85;;;;;;;5.65;100.00;98951.72;6029727;23;20006;-72
2024/01/02 04:02:02;;;;;;;3.17;3.08;;;;;;;6.25;100.00;99023.63;6036393;23;20386;-71
2024/01/02 04:04:29;;;;;;;4.75;4.55;;;;;;;6.04;100.00;98991.94;6038690;23;20069;-70
2024/01/02 04:06:56;;;;;;;3.00;2.90;;;;;;;5.91;100.00;98971.00;6025698;23;20076;-72
2024/01/02 04:09:22;;;;;;;3.10;3.00;;;;;;;5.95;100.00;98967.31;6053188;23;20073;-72
2024/01/02 04:11:50;;;;;;;3.47;3.22;;;;;;;6.23;100.00;99014.25;6014516;23;20424;-71
2024/01/02 04:14:16;;;;;;;3.22;3.13;;;;;;;5.98;100.00;98974.09;6048839;23;20007;-71
2024/01/02 04:16:43;;;;;;;3.20;3.10;;;;;;;6.26;100.00;99025.31;5987747;23;20027;-71
2024/01/02 04:19:12;;;;;;;3.30;3.20;;;;;;;6.28;100.00;99015.66;6038851;23;20121;-72
2024/01/02 04:21:39;;;;;;;3.20;3.10;;;;;;;6.37;100.00;99004.66;6042472;23;20351;-72
2024/01/02 04:24:06;;;;;;;3.35;3.25;;;;;;;6.25;100.00;98976.75;6042795;23;20010;-72
2024/01/02 04:26:32;;;;;;;4.30;4.10;;;;;;;5.95;100.00;98922.19;6051405;23;20032;-71
2024/01/02 04:28:58;;;;;;;3.30;3.20;;;;;;;5.35;100.00;98842.53;6007131;23;20043;-71
2024/01/02 04:31:25;;;;;;;3.28;3.17;;;;;;;6.35;100.00;98995.25;6028951;23;20026;-72
2024/01/02 04:33:51;;;;;;;3.15;3.05;;;;;;;6.42;100.00;99001.75;6055046;23;20010;-72
2024/01/02 04:36:18;;;;;;;3.67;3.53;;;;;;;6.40;100.00;99003.63;6049251;23;20145;-73
2024/01/02 04:38:45;;;;;;;3.78;3.58;;;;;;;6.40;100.00;98995.81;6043190;23;20036;-73
2024/01/02 04:41:13;;;;;;;3.50;3.40;;;;;;;6.45;100.00;99000.72;6052759;23;20030;-71
2024/01/02 04:43:39;;;;;;;3.00;2.90;;;;;;;6.29;100.00;98972.19;6029284;23;20022;-71
2024/01/02 04:46:05;;;;;;;3.20;3.10;;;;;;;6.48;100.00;98996.16;6052940;23;20232;-73
2024/01/02 04:48:32;;;;;;;4.20;4.00;;;;;;;6.55;100.00;99007.03;6042125;23;20034;-72
2024/01/02 04:50:58;;;;;;;3.05;2.95;;;;;;;6.47;100.00;98984.06;6051738;23;20506;-72
2024/01/02 04:53:25;;;;;;;3.08;2.97;;;;;;;6.24;100.00;98946.44;6056859;23;20238;-73
2024/01/02 04:55:51;;;;;;;3.50;3.20;;;;;;;6.31;100.00;98950.31;6046733;23;20030;-71
2024/01/02 04:58:18;;;;;;;3.83;3.67;;;;;;;6.55;100.00;98988.78;6034610;23;20034;-72
2024/01/02 05:00:44;;;;;;;2.90;2.80;;;;;;;6.62;100.00;99002.28;6049002;23;20026;-72
2024/01/02 05:03:11;;;;;;;3.30;3.20;;;;;;;6.62;100.00;98986.66;6054522;23;20221;-74
2024/01/02 05:05:38;;;;;;;3.00;2.90;;;;;;;6.39;100.00;98955.03;6008609;23;20035;-72
2024/01/02 05:08:08;;;;;;;3.10;3.00;;;;;;;6.69;100.00;98983.53;6049704;23;20027;-70
2024/01/02 05:10:36;;;;;;;3.53;3.38;;;;;;;6.14;100.00;98857.63;6051526;23;20155;-71
2024/01/02 05:13:03;;;;;;;3.10;3.00;;;;;;;6.40;100.00;98925.47;6054765;23;20023;-72
2024/01/02 05:15:29;;;;;;;3.13;3.03;;;;;;;6.75;100.00;98983.16;6015711;23;20014;-72
2024/01/02 05:17:56;;;;;;;3.20;3.10;;;;;;;6.10;100.00;98894.38;6020667;23;20037;-72
2024/01/02 05:20:22;;;;;;;4.15;3.95;;;;;;;6.77;100.00;98985.66;6045825;23;20021;-71
2024/01/02 05:22:49;;;;;;;3.00;2.90;;;;;;;6.82;100.00;98941.88;6004769;23;20019;-72
2024/01/02 05:25:27;;;;;;;3.15;3.05;;;;;;;6.76;100.00;98969.19;6045403;23;20105;-73
2024/01/02 05:27:53;;;;;;;3.00;2.90;;;;;;;6.68;100.00;98948.00;6027195;23;20391;-71
2024/01/02 05:30:20;;;;;;;4.15;3.95;;;;;;;6.96;100.00;98977.50;6052267;23;20025;-72
2024/01/02 05:32:46;;;;;;;3.10;3.00;;;;;;;6.98;100.00;98986.91;6045243;23;20085;-71
2024/01/02 05:35:13;;;;;;;3.30;3.20;;;;;;;6.75;100.00;98954.47;6035802;23;20566;-72
2024/01/02 05:37:39;;;;;;;3.08;2.97;;;;;;;7.02;100.00;98978.88;6042393;23;20105;-71
2024/01/02 05:40:09;;;;;;;3.20;3.10;;;;;;;7.06;100.00;98989.00;6051374;23;20018;-71
2024/01/02 05:42:36;;;;;;;3.00;2.90;;;;;;;5.95;100.00;98798.06;6047173;23;20049;-72
2024/01/02 05:45:03;;;;;;;3.20;3.10;;;;;;;7.12;100.00;98961.69;6037248;23;20038;-70
2024/01/02 05:47:29;;;;;;;3.20;3.10;;;;;;;7.62;100.00;98998.38;6050084;23;20125;-71
2024/01/02 05:49:56;;;;;;;4.20;3.38;;;;;;;7.56;100.00;98965.72;6045311;23;20391;-71
2024/01/02 05:52:22;;;;;;;4.50;4.30;;;;;;;8.26;100.00;98991.38;6048309;23;20077;-72
2024/01/02 05:54:49;;;;;;;3.00;2.90;;;;;;;8.48;100.00;99002.94;6038294;23;20072;-72
2024/01/02 05:57:15;;;;;;;3.40;3.30;;;;;;;8.52;100.00;98999.16;6045593;23;20165;-72
2024/01/02 05:59:41;;;;;;;3.20;3.10;;;;;;;8.67;100.00;99008.53;6023495;23;20507;-71
2024/01/02 06:02:08;;;;;;;3.35;3.25;;;;;;;8.58;100.00;98951.69;6036947;23;20126;-72
2024/01/02 06:04:35;;;;;;;3.60;3.50;;;;;;;8.93;100.00;98979.69;6033349;23;20390;-72
2024/01/02 06:07:01;;;;;;;3.28;3.17;;;;;;;8.73;100.00;98944.50;6052243;23;20014;-70
2024/01/02 06:09:28;;;;;;;3.50;3.40;;;;;;;9.14;100.00;98936.25;6039552;23;20051;-74
2024/01/02 06:11:56;;;;;;;3.50;3.40;;;;;;;9.29;100.00;98949.94;6038028;23;20149;-74
2024/01/02 06:14:23;;;;;;;4.25;4.05;;;;;;;9.28;100.00;98957.91;6045745;23;20319;-73
2024/01/02 06:16:49;;;;;;;3.42;3.33;;;;;;;9.23;100.00;98916.38;6018233;23;20144;-71
2024/01/02 06:19:18;;;;;;;3.70;3.60;;;;;;;9.21;100.00;98880.81;6041964;23;20011;-74
2024/01/02 06:21:45;;;;;;;3.42;3.33;;;;;;;9.43;100.00;98912.25;6021191;23;20066;-72
2024/01/02 06:24:12;;;;;;;3.55;3.45;;;;;;;9.49;100.00;98892.63;6052213;23;20022;-73
2024/01/02 06:26:40;;;;;;;3.70;3.50;;;;;;;9.55;100.00;98869.41;6001658;23;20022;-71
2024/01/02 06:29:07;;;;;;;4.00;3.80;;;;;;;9.53;100.00;98884.41;6050877;23;20504;-71
2024/01/02 06:31:33;;;;;;;3.40;3.30;;;;;;;9.54;100.00;98857.28;6047227;23;20566;-72
2024/01/02 06:34:00;;;;;;;3.50;3.40;;;;;;;9.66;100.00;98871.22;6008452;23;20039;-71
2024/01/02 06:36:26;;;;;;;4.57;4.38;;;;;;;9.58;100.00;98842.16;6043216;23;20046;-70
2024/01/02 06:38:53;;;;;;;3.55;3.45;;;;;;;9.24;100.00;98776.72;6054417;23;20018;-73
2024/01/02 06:41:19;;;;;;;3.75;3.55;;;;;;;9.69;100.00;98842.16;6004260;23;20609;-70
2024/01/02 06:43:46;;;;;;;3.50;3.40;;;;;;;9.42;100.00;98829.44;6040660;23;20019;-71
2024/01/02 06:46:12;;;;;;;3.70;3.60;;;;;;;9.75;100.00;98872.28;6037420;23;20642;-70
2024/01/02 06:48:40;;;;;;;3.47;3.38;;;;;;;9.62;100.00;98840.13;6038085;23;20227;-70
2024/01/02 06:51:07;;;;;;;3.50;3.40;;;;;;;9.61;100.00;98823.59;6046045;23;20026;-71
2024/01/02 06:53:33;;;;;;;3.90;3.70;;;;;;;9.79;100.00;98871.09;6045207;23;20410;-71
2024/01/02 06:56:03;;;;;;;3.67;3.58;;;;;;;9.93;100.00;98862.97;6057246;23;20130;-70
2024/01/02 06:58:29;;;;;;;4.80;4.60;;;;;;;9.98;100.00;98860.84;6050322;23;20108;-72
2024/01/02 07:00:56;;;;;;;3.53;3.42;;;;;;;9.96;100.00;98844.41;6053537;23;20018;-71
2024/01/02 07:03:22;;;;;;;3.72;3.63;;;;;;;10.12;100.00;98851.88;6021388;23;20054;-70
2024/01/02 07:05:49;;;;;;;3.80;3.60;;;;;;;9.88;100.00;98810.13;6036157;23;20023;-73
2024/01/02 07:08:15;;;;;;;3.60;3.50;;;;;;;10.09;100.00;98857.34;6040534;23;20046;-72
2024/01/02 07:10:42;;;;;;;3.70;3.60;;;;;;;10.14;100.00;98854.34;6038938;23;20412;-71
2024/01/02 07:13:08;;;;;;;3.70;3.50;;;;;;;10.14;100.00;98849.97;6035048;23;20019;-72
2024/01/02 07:15:35;;;;;;;3.70;3.60;;;;;;;10.25;100.00;98846.47;6034620;23;20031;-72
2024/01/02 07:18:01;;;;;;;3.70;3.58;;;;;;;9.01;100.00;98647.66;6014665;23;20078;-71
2024/01/02 07:20:28;;;;;;;4.72;4.53;;;;;;;10.21;100.00;98834.56;6033148;23;20029;-72
2024/01/02 07:22:56;;;;;;;3.63;3.53;;;;;;;10.31;100.00;98839.94;6050140;23;20054;-73
2024/01/02 07:25:22;;;;;;;3.78;3.63;;;;;;;9.04;100.00;98629.13;6033777;23;20113;-70
2024/01/02 07:27:49;;;;;;;3.53;3.42;;;;;;;10.17;100.00;98810.38;6056364;23;20035;-71
2024/01/02 07:30:15;;;;;;;3.70;3.60;;;;;;;10.32;100.00;98823.22;6046751;23;20079;-70
2024/01/02 07:32:42;;;;;;;3.60;3.50;;;;;;;9.89;100.00;98759.38;6040126;23;20089;-70
2024/01/02 07:35:09;;;;;;;3.85;3.65;;;;;;;10.31;100.00;98809.28;6026506;23;20030;-73
2024/01/02 07:37:35;;;;;;;3.70;3.60;;;;;;;10.17;100.00;98806.94;6046779;23;20034;-71
2024/01/02 07:40:01;;;;;;;3.90;3.70;;;;;;;10.15;100.00;98835.06;6018575;23;20031;-71
2024/01/02 07:42:31;;;;;;;4.70;4.50;;;;;;;10.29;100.00;98861.00;6045872;23;20133;-71
2024/01/02 07:44:57;;;;;;;3.60;3.50;;;;;;;9.36;100.00;98668.44;6016251;23;20378;-72
2024/01/02 07:47:25;;;;;;;3.65;3.55;;;;;;;10.51;100.00;98831.28;6046176;23;20303;-71
2024/01/02 07:49:52;;;;;;;3.40;3.30;;;;;;;10.00;100.00;98758.47;6045975;23;20022;-71
2024/01/02 07:52:18;;;;;;;4.28;4.10;;;;;;;10.50;100.00;98810.41;6024446;23;20022;-73
2024/01/02 07:54:45;;;;;;;3.50;3.40;;;;;;;10.46;100.00;98825.56;6055342;23;20414;-71
2024/01/02 07:57:11;;;;;;;3.80;3.60;;;;;;;10.11;100.00;98782.03;6014587;23;20454;-71
2024/01/02 07:59:37;;;;;;;3.70;3.60;;;;;;;10.10;100.00;98769.06;6046255;23;20018;-71
2024/01/02 08:02:04;;;;;;;3.83;3.72;;;;;;;10.40;100.00;98825.22;6057818;23;20033;-72
2024/01/02 08:04:32;;;;;;;4.75;4.55;;;;;;;10.33;100.00;98832.78;6030439;23;20046;-72
2024/01/02 08:07:01;;;;;;;3.80;3.60;;;;;;;10.49;100.00;98869.91;6044027;23;20171;-71
2024/01/02 08:09:28;;;;;;;3.83;3.67;;;;;;;10.30;100.00;98851.38;6055347;23;20009;-71
2024/01/02 08:11:55;;;;;;;3.85;3.65;;;;;;;10.31;100.00;98869.59;6034296;23;20033;-72
2024/01/02 08:14:22;;;;;;;4.40;4.20;;;;;;;10.26;100.00;98849.91;6041183;23;20019;-72
2024/01/02 08:16:49;;;;;;;4.13;3.92;;;;;;;10.24;100.00;98844.78;6045831;23;20093;-72
2024/01/02 08:19:15;;;;;;;3.70;3.60;;;;;;;10.57;100.00;98900.75;6044471;23;20452;-72
2024/01/02 08:21:42;;;;;;;4.03;3.83;;;;;;;10.56;100.00;98902.56;6031442;23;20035;-73
2024/01/02 08:24:08;;;;;;;3.97;3.78;;;;;;;10.44;100.00;98890.41;6021757;23;20359;-71
2024/01/02 08:26:36;;;;;;;14.15;4.55;;;;;;;10.31;100.00;98874.03;6036891;23;20357;-71
2024/01/02 08:29:03;;;;;;;4.18;3.97;;;;;;;10.48;100.00;98909.38;6046850;23;20022;-73
2024/01/02 08:31:29;;;;;;;5.63;3.95;;;;;;;10.42;100.00;98907.22;6050213;23;20011;-73
2024/01/02 08:33:56;;;;;;;3.60;3.50;;;;;;;10.28;100.00;98889.94;6043135;23;20496;-72
2024/01/02 08:36:23;;;;;;;4.45;4.25;;;;;;;10.47;100.00;98918.19;6033321;23;20256;-72
2024/01/02 08:38:50;;;;;;;3.90;3.70;;;;;;;10.00;100.00;98842.34;6035194;23;20081;-72
2024/01/02 08:41:16;;;;;;;3.67;3.58;;;;;;;10.49;100.00;98913.66;6037972;23;20112;-72
2024/01/02 08:43:43;;;;;;;4.10;3.90;;;;;;;10.56;100.00;98926.16;6036451;23;20019;-72
2024/01/02 08:46:09;;;;;;;3.70;3.60;;;;;;;10.54;100.00;98921.97;6031843;23;20192;-72
2024/01/02 08:48:36;;;;;;;3.80;3.70;;;;;;;10.24;100.00;98863.13;6032840;23;20342;-72
2024/01/02 08:51:02;;;;;;;3.80;3.70;;;;;;;10.57;100.00;98906.00;6051306;23;20241;-72
2024/01/02 08:53:30;;;;;;;4.00;3.80;;;;;;;10.19;100.00;98846.97;6010455;23;20034;-74
2024/01/02 08:55:56;;;;;;;4.00;3.80;;;;;;;10.36;100.00;98861.34;6012115;23;20096;-72
2024/01/02 08:58:23;;;;;;;4.85;4.65;;;;;;;10.65;100.00;98906.22;5989000;23;20090;-72
2024/01/02 09:00:50;;;;;;;8.40;3.50;;;;;;;10.69;100.00;98897.13;6049902;23;21056;-74
2024/01/02 09:03:17;;;;;;;3.65;3.55;;;;;;;10.35;100.00;98847.41;5998554;23;20257;-70
2024/01/02 09:05:43;;;;;;;4.00;3.80;;;;;;;10.48;100.00;98862.97;5995975;23;20200;-73
2024/01/02 09:08:11;;;;;;;4.10;3.90;;;;;;;10.21;100.00;98818.00;6043035;23;20131;-71
2024/01/02 09:10:39;;;;;;;4.10;3.90;;;;;;;10.45;100.00;98844.88;6049434;23;20646;-70
2024/01/02 09:13:05;;;;;;;4.10;3.90;;;;;;;10.69;100.00;98856.97;6055448;23;20074;-73
2024/01/02 09:15:35;;;;;;;4.57;4.38;;;;;;;9.99;100.00;98754.22;6024789;23;20038;-73
2024/01/02 09:18:02;;;;;;;4.20;4.00;;;;;;;10.85;100.00;98888.84;6056762;23;20014;-72
2024/01/02 09:20:32;;;;;;;4.80;4.60;;;;;;;10.82;100.00;98860.22;6043822;23;20088;-73
2024/01/02 09:22:58;;;;;;;3.97;3.80;;;;;;;10.69;100.00;98826.31;6035424;23;20415;-73
2024/01/02 09:25:26;;;;;;;7.05;3.80;;;;;;;10.90;100.00;98844.66;6055319;23;20029;-73
2024/01/02 09:27:59;;;;;;;4.90;4.50;;;;;;;10.93;100.00;98835.72;6042352;23;20038;-71
2024/01/02 09:30:25;;;;;;;4.90;4.70;;;;;;;10.86;100.00;98808.31;6040750;23;20793;-72
2024/01/02 09:32:52;;;;;;;3.80;3.70;;;;;;;11.01;100.00;98808.84;6036201;23;20262;-72
2024/01/02 09:35:19;;;;;;;3.80;3.70;;;;;;;10.41;100.00;98695.81;6037178;23;20076;-75
2024/01/02 09:37:46;;;;;;;4.05;3.85;;;;;;;10.96;100.00;98761.97;6042504;23;20670;-73
2024/01/02 09:40:42;;;;;;;4.20;4.00;;;;;;;11.07;100.00;98761.06;6033124;23;20014;-72
2024/01/02 09:43:40;;;;;;;4.75;4.30;;;;;;;10.98;100.00;98753.03;6053571;23;20015;-71
2024/01/02 09:46:45;;;;;;;4.00;3.80;;;;;;;10.97;100.00;98753.97;6019415;23;20258;-72
2024/01/02 09:49:26;;;;;;;3.78;3.58;;;;;;;11.03;100.00;98742.13;6042537;23;20089;-72
2024/01/02 09:52:05;;;;;;;3.70;3.60;;;;;;;11.03;100.00;98731.63;6049979;23;20368;-72
2024/01/02 09:54:55;;;;;;;4.40;4.20;;;;;;;10.22;100.00;98584.56;5995719;23;20061;-71
2024/01/02 09:57:29;;;;;;;;;;;;;;;11.08;100.00;98697.09;6035032;23;20011;-71
2024/01/02 10:00:13;;;;;;;3.70;3.60;;;;;;;11.15;100.00;98685.09;6031527;23;20001;-72
2024/01/02 10:03:04;;;;;;;3.65;3.55;;;;;;;11.22;100.00;98661.75;6008181;23;20019;-71
2024/01/02 10:05:46;;;;;;;3.70;3.60;;;;;;;11.23;100.00;98663.44;6052398;23;20041;-72
2024/01/02 10:08:28;;;;;;;4.20;4.00;;;;;;;11.22;100.00;98638.97;6014855;23;20020;-73
2024/01/02 10:11:14;;;;;;;3.77;3.67;;;;;;;10.06;100.00;98435.63;6053094;23;20042;-72
2024/01/02 10:14:03;;;;;;;3.75;3.65;;;;;;;11.29;100.00;98613.84;6036696;23;20206;-72
2024/01/02 10:16:40;;;;;;;5.55;5.25;;;;;;;11.31;100.00;98604.03;6050920;23;20285;-72
2024/01/02 10:19:31;;;;;;;4.35;4.18;;;;;;;11.31;100.00;98585.63;6063904;23;20026;-73
2024/01/02 10:22:35;;;;;;;3.70;3.60;;;;;;;11.32;100.00;98587.28;6039440;23;20034;-73
2024/01/02 10:25:08;;;;;;;4.30;4.10;;;;;;;11.11;100.00;98541.97;6029753;23;20039;-74
2024/01/02 10:27:45;;;;;;;4.60;4.20;;;;;;;10.78;100.00;98491.47;6058429;23;20049;-75
2024/01/02 10:30:17;;;;;;;4.30;4.10;;;;;;;11.37;100.00;98571.13;6041126;23;20683;-71
2024/01/02 10:32:56;;;;;;;4.10;3.90;;;;;;;11.41;100.00;98540.19;6043078;23;20091;-72
2024/01/02 10:35:33;;;;;;;4.30;4.10;;;;;;;11.46;100.00;98516.94;6053088;23;20010;-72
2024/01/02 10:38:08;;;;;;;4.47;4.13;;;;;;;11.43;100.00;98510.19;6052765;23;20026;-72
2024/01/02 10:40:44;;;;;;;4.40;4.20;;;;;;;11.14;100.00;98431.41;6058260;23;20053;-72
2024/01/02 10:43:20;;;;;;;4.30;4.10;;;;;;;10.87;100.00;98390.16;6004598;23;20071;-74
2024/01/02 10:45:52;;;;;;;4.63;4.43;;;;;;;11.48;100.00;98488.75;6023015;23;20022;-72
2024/01/02 10:48:28;;;;;;;4.38;4.18;;;;;;;11.47;100.00;98463.47;6059394;23;20116;-73
2024/01/02 10:51:04;;;;;;;4.00;3.80;;;;;;;11.41;100.00;98446.47;6054589;23;20424;-73
2024/01/02 10:53:38;;;;;;;4.10;3.90;;;;;;;11.46;100.00;98427.66;6060645;23;20465;-72
2024/01/02 10:56:18;;;;;;;4.07;3.88;;;;;;;11.07;100.00;98390.97;6054299;23;20018;-72
2024/01/02 10:59:11;;;;;;;3.90;3.75;;;;;;;11.20;100.00;98409.03;6032706;23;20519;-72
2024/01/02 11:01:40;;;;;;;6.55;3.83;;;;;;;11.41;100.00;98453.53;6000971;23;20037;-72
2024/01/02 11:04:16;;;;;;;4.00;3.80;;;;;;;11.12;100.00;98415.78;5989312;23;20258;-72
2024/01/02 11:06:45;;;;;;;3.80;3.70;;;;;;;11.35;100.00;98468.03;6037213;23;20102;-71
2024/01/02 11:09:43;;;;;;;4.32;4.13;;;;;;;11.28;100.00;98466.91;6046056;23;20018;-73
2024/01/02 11:12:12;;;;;;;3.95;3.80;;;;;;;11.15;100.00;98486.41;6007451;23;20465;-74
2024/01/02 11:14:43;;;;;;;3.75;3.65;;;;;;;10.93;100.00;98494.56;6006059;23;20090;-71
2024/01/02 11:17:13;;;;;;;4.15;3.95;;;;;;;10.10;100.00;98396.91;6029419;23;20461;-71
2024/01/02 11:19:56;;;;;;;3.90;3.70;;;;;;;10.36;100.00;98496.91;6032170;23;20046;-72
2024/01/02 11:22:30;;;;;;;5.00;4.75;;;;;;;10.79;100.00;98621.72;6002146;23;20083;-71
2024/01/02 11:25:02;;;;;;;4.07;3.88;;;;;;;10.54;100.00;98602.84;6028958;23;20040;-72
2024/01/02 11:27:30;;;;;;;3.60;3.50;;;;;;;10.51;100.00;98631.13;6027987;23;20025;-71
2024/01/02 11:30:02;;;;;;;4.07;3.88;;;;;;;10.38;100.00;98624.31;6025441;23;20082;-72
2024/01/02 11:32:50;;;;;;;5.13;4.93;;;;;;;10.20;100.00;98615.31;6025248;23;20039;-71
2024/01/02 11:35:17;;;;;;;4.00;3.80;;;;;;;10.11;100.00;98616.94;6026848;23;20087;-73
2024/01/02 11:37:58;;;;;;;3.70;3.60;;;;;;;10.25;100.00;98656.88;6028556;23;20132;-72
2024/01/02 11:40:43;;;;;;;4.93;4.72;;;;;;;10.50;100.00;98705.50;5996794;23;20023;-71